createdAt,value
2022-09-02T00:00:42.970Z,101514.22
2022-09-02T00:03:10.014Z,101516.25
2022-09-02T00:05:36.930Z,101517.41
2022-09-02T00:08:03.770Z,101510.03
2022-09-02T00:10:30.610Z,101511.75
2022-09-02T00:12:57.459Z,101512.66
2022-09-02T00:15:24.357Z,101507.88
2022-09-02T00:17:51.157Z,101511.09
2022-09-02T00:20:18.662Z,101510.78
2022-09-02T00:22:45.573Z,101507.88
2022-09-02T00:25:12.492Z,101508.38
2022-09-02T00:27:39.331Z,101512.63
2022-09-02T00:30:06.148Z,101508.47
2022-09-02T00:32:33.097Z,101511.25
2022-09-02T00:35:00.024Z,101511.69
2022-09-02T00:37:26.901Z,101503.47
2022-09-02T00:39:54.167Z,101504.31
2022-09-02T00:42:21.030Z,101500.66
2022-09-02T00:44:47.862Z,101500.03
2022-09-02T00:47:15.411Z,101501.31
2022-09-02T00:49:42.849Z,101498.13
2022-09-02T00:52:09.775Z,101495.78
2022-09-02T00:54:36.688Z,101493.44
2022-09-02T00:57:03.715Z,101496.88
2022-09-02T00:59:30.558Z,101504.53
2022-09-02T01:01:58.565Z,101502.47
2022-09-02T01:04:26.097Z,101501.63
2022-09-02T01:06:54.405Z,101491.97
2022-09-02T01:09:21.228Z,101497.91
2022-09-02T01:11:48.132Z,101498.56
2022-09-02T01:14:14.949Z,101489.06
2022-09-02T01:16:42.142Z,101492.78
2022-09-02T01:19:10.292Z,101483.50
2022-09-02T01:21:38.350Z,101489.94
2022-09-02T01:24:05.781Z,101480.63
2022-09-02T01:26:33.600Z,101478.88
2022-09-02T01:29:00.478Z,101483.91
2022-09-02T01:31:27.395Z,101483.84
2022-09-02T01:33:55.051Z,101470.69
2022-09-02T01:36:22.482Z,101476.66
2022-09-02T01:38:49.385Z,101483.66
2022-09-02T01:41:16.270Z,101470.81
2022-09-02T01:43:43.192Z,101475.91
2022-09-02T01:46:10.139Z,101473.16
2022-09-02T01:48:37.045Z,101469.56
2022-09-02T01:51:03.880Z,101472.56
2022-09-02T01:53:30.746Z,101470.25
2022-09-02T01:55:57.561Z,101470.72
2022-09-02T01:58:24.699Z,101465.06
2022-09-02T02:00:51.848Z,101462.31
2022-09-02T02:03:18.704Z,101468.97
2022-09-02T02:05:45.585Z,101466.84
2022-09-02T02:08:12.407Z,101456.56
2022-09-02T02:10:39.284Z,101462.56
2022-09-02T02:13:06.082Z,101458.41
2022-09-02T02:17:58.643Z,101455.09
2022-09-02T02:20:26.985Z,101458.94
2022-09-02T02:22:54.047Z,101456.88
2022-09-02T02:25:21.105Z,101464.47
2022-09-02T02:27:49.263Z,101462.38
2022-09-02T02:30:16.381Z,101463.69
2022-09-02T02:32:43.259Z,101461.50
2022-09-02T02:35:10.958Z,101458.44
2022-09-02T02:37:37.754Z,101456.78
2022-09-02T02:40:04.671Z,101452.59
2022-09-02T02:42:31.506Z,101458.91
2022-09-02T02:44:58.545Z,101459.94
2022-09-02T02:47:26.740Z,101453.59
2022-09-02T02:49:53.558Z,101456.81
2022-09-02T02:52:20.701Z,101447.22
2022-09-02T02:54:47.582Z,101452.97
2022-09-02T02:57:14.381Z,101454.72
2022-09-02T02:59:41.183Z,101446.28
2022-09-02T03:02:08.207Z,101448.63
2022-09-02T03:04:35.122Z,101450.09
2022-09-02T03:07:02.915Z,101447.38
2022-09-02T03:09:29.850Z,101449.72
2022-09-02T03:11:56.636Z,101445.56
2022-09-02T03:14:24.128Z,101439.53
2022-09-02T03:16:50.944Z,101441.06
2022-09-02T03:19:17.737Z,101441.25
2022-09-02T03:21:44.534Z,101444.00
2022-09-02T03:24:11.357Z,101440.06
2022-09-02T03:26:38.149Z,101432.34
2022-09-02T03:29:05.060Z,101436.84
2022-09-02T03:31:31.922Z,101434.16
2022-09-02T03:33:58.839Z,101435.25
2022-09-02T03:36:25.688Z,101435.88
2022-09-02T03:38:52.538Z,101432.09
2022-09-02T03:41:19.387Z,101431.91
2022-09-02T03:43:46.197Z,101432.75
2022-09-02T03:46:13.901Z,101433.81
2022-09-02T03:48:40.943Z,101426.03
2022-09-02T03:51:07.728Z,101426.19
2022-09-02T03:53:34.867Z,101421.66
2022-09-02T03:56:01.663Z,101422.44
2022-09-02T03:58:29.113Z,101436.88
2022-09-02T04:00:56.269Z,101435.44
2022-09-02T04:03:23.308Z,101424.16
2022-09-02T04:05:50.763Z,101430.84
2022-09-02T04:08:17.670Z,101436.84
2022-09-02T04:10:44.477Z,101440.47
2022-09-02T04:13:11.369Z,101439.03
2022-09-02T04:15:38.216Z,101451.78
2022-09-02T04:18:05.054Z,101450.09
2022-09-02T04:20:31.917Z,101438.22
2022-09-02T04:22:58.781Z,101449.25
2022-09-02T04:25:27.689Z,101445.91
2022-09-02T04:27:54.717Z,101448.03
2022-09-02T04:30:22.956Z,101445.66
2022-09-02T04:32:49.765Z,101448.06
2022-09-02T04:35:16.596Z,101444.81
2022-09-02T04:37:44.196Z,101437.03
2022-09-02T04:40:11.092Z,101442.16
2022-09-02T04:42:38.541Z,101442.72
2022-09-02T04:45:05.392Z,101435.63
2022-09-02T04:47:32.234Z,101437.34
2022-09-02T04:49:59.044Z,101440.34
2022-09-02T04:52:25.875Z,101439.50
2022-09-02T04:54:52.710Z,101443.13
2022-09-02T04:57:20.020Z,101439.94
2022-09-02T04:59:46.844Z,101437.00
2022-09-02T05:02:13.853Z,101447.59
2022-09-02T05:04:40.721Z,101438.72
2022-09-02T05:07:07.574Z,101442.38
2022-09-02T05:09:34.476Z,101437.88
2022-09-02T05:12:04.247Z,101442.72
2022-09-02T05:14:31.080Z,101434.41
2022-09-02T05:16:57.894Z,101439.34
2022-09-02T05:19:24.697Z,101444.78
2022-09-02T05:21:52.185Z,101448.69
2022-09-02T05:24:22.124Z,101446.22
2022-09-02T05:26:51.322Z,101450.03
2022-09-02T05:29:22.140Z,101445.84
2022-09-02T05:31:49.013Z,101442.47
2022-09-02T05:34:15.835Z,101446.09
2022-09-02T05:36:42.653Z,101450.53
2022-09-02T05:39:09.456Z,101448.03
2022-09-02T05:41:36.249Z,101441.25
2022-09-02T05:44:03.687Z,101443.69
2022-09-02T05:46:30.912Z,101438.69
2022-09-02T05:49:07.636Z,101434.78
2022-09-02T05:51:34.553Z,101444.13
2022-09-02T05:54:01.351Z,101442.41
2022-09-02T05:56:28.174Z,101444.72
2022-09-02T05:58:54.961Z,101439.09
2022-09-02T06:01:21.889Z,101436.69
2022-09-02T06:03:48.712Z,101443.91
2022-09-02T06:06:15.500Z,101440.97
2022-09-02T06:08:43.523Z,101435.88
2022-09-02T06:11:10.350Z,101440.38
2022-09-02T06:13:37.132Z,101445.88
2022-09-02T06:16:04.047Z,101445.88
2022-09-02T06:18:30.895Z,101448.88
2022-09-02T06:20:59.482Z,101444.66
2022-09-02T06:23:26.404Z,101438.69
2022-09-02T06:25:53.200Z,101438.72
2022-09-02T06:28:20.008Z,101454.75
2022-09-02T06:30:48.373Z,101443.84
2022-09-02T06:33:15.251Z,101441.94
2022-09-02T06:35:42.036Z,101443.34
2022-09-02T06:38:08.879Z,101438.16
2022-09-02T06:40:35.756Z,101440.75
2022-09-02T06:43:02.740Z,101444.97
2022-09-02T06:45:31.184Z,101442.88
2022-09-02T06:47:58.034Z,101440.38
2022-09-02T06:50:24.934Z,101447.34
2022-09-02T06:52:53.702Z,101448.00
2022-09-02T06:55:20.915Z,101450.31
2022-09-02T06:57:47.792Z,101444.63
2022-09-02T07:00:16.521Z,101445.56
2022-09-02T07:02:43.946Z,101443.66
2022-09-02T07:05:11.489Z,101445.09
2022-09-02T07:07:38.327Z,101445.47
2022-09-02T07:10:05.155Z,101442.69
2022-09-02T07:12:31.946Z,101447.66
2022-09-02T07:14:58.736Z,101441.19
2022-09-02T07:17:25.640Z,101443.75
2022-09-02T07:19:52.478Z,101446.28
2022-09-02T07:22:19.264Z,101439.94
2022-09-02T07:24:46.103Z,101444.22
2022-09-02T07:27:12.930Z,101444.59
2022-09-02T07:29:41.312Z,101449.09
2022-09-02T07:32:08.134Z,101437.69
2022-09-02T07:34:35.010Z,101443.28
2022-09-02T07:37:05.092Z,101449.56
2022-09-02T07:39:34.209Z,101445.31
2022-09-02T07:42:01.838Z,101446.22
2022-09-02T07:44:28.677Z,101447.09
2022-09-02T07:46:56.204Z,101450.69
2022-09-02T07:49:24.185Z,101446.47
2022-09-02T07:51:51.243Z,101446.97
2022-09-02T07:54:18.742Z,101447.19
2022-09-02T07:56:45.872Z,101441.66
2022-09-02T07:59:12.979Z,101440.59
2022-09-02T08:01:39.881Z,101434.16
2022-09-02T08:04:06.694Z,101440.59
2022-09-02T08:06:34.814Z,101441.50
2022-09-02T08:09:02.030Z,101433.53
2022-09-02T08:11:29.015Z,101435.06
2022-09-02T08:13:55.889Z,101431.06
2022-09-02T08:16:22.767Z,101433.59
2022-09-02T08:18:49.796Z,101434.91
2022-09-02T08:21:16.623Z,101442.59
2022-09-02T08:23:43.745Z,101430.94
2022-09-02T08:26:11.135Z,101433.38
2022-09-02T08:28:38.380Z,101428.25
2022-09-02T08:31:05.238Z,101433.06
2022-09-02T08:33:32.047Z,101428.47
2022-09-02T08:35:58.834Z,101434.84
2022-09-02T08:38:25.636Z,101420.06
2022-09-02T08:40:52.532Z,101418.81
2022-09-02T08:43:20.842Z,101426.44
2022-09-02T08:45:47.729Z,101427.66
2022-09-02T08:48:14.648Z,101423.41
2022-09-02T08:50:41.448Z,101422.00
2022-09-02T08:53:09.020Z,101418.03
2022-09-02T08:55:35.834Z,101418.69
2022-09-02T08:58:02.950Z,101413.25
2022-09-02T09:00:29.942Z,101409.47
2022-09-02T09:02:57.806Z,101414.13
2022-09-02T09:05:24.631Z,101407.59
2022-09-02T09:07:51.574Z,101400.59
2022-09-02T09:10:18.461Z,101401.81
2022-09-02T09:12:45.311Z,101398.06
2022-09-02T09:15:12.125Z,101401.25
2022-09-02T09:17:39.042Z,101397.34
2022-09-02T09:20:05.896Z,101388.91
2022-09-02T09:22:32.749Z,101385.13
2022-09-02T09:24:59.587Z,101389.16
2022-09-02T09:27:26.385Z,101376.28
2022-09-02T09:29:53.242Z,101379.44
2022-09-02T09:32:21.171Z,101378.13
2022-09-02T09:34:49.062Z,101377.53
2022-09-02T09:37:15.889Z,101362.38
2022-09-02T09:39:42.686Z,101371.47
2022-09-02T09:42:09.493Z,101367.53
2022-09-02T09:44:39.351Z,101355.75
2022-09-02T09:47:07.032Z,101379.22
2022-09-02T09:49:33.933Z,101369.31
2022-09-02T09:52:00.761Z,101360.84
2022-09-02T09:54:27.863Z,101368.69
2022-09-02T09:56:55.105Z,101358.78
2022-09-02T09:59:21.965Z,101364.88
2022-09-02T10:01:48.846Z,101360.97
2022-09-02T10:04:39.323Z,101352.59
2022-09-02T10:07:02.937Z,101350.66
2022-09-02T10:09:30.675Z,101348.78
2022-09-02T10:11:57.625Z,101349.41
2022-09-02T10:14:27.774Z,101349.84
2022-09-02T10:16:56.366Z,101349.22
2022-09-02T10:19:23.209Z,101351.31
2022-09-02T10:21:50.031Z,101353.63
2022-09-02T10:24:16.840Z,101339.94
2022-09-02T10:26:43.692Z,101343.78
2022-09-02T10:29:11.537Z,101346.19
2022-09-02T10:31:38.865Z,101334.59
2022-09-02T10:34:05.825Z,101347.69
2022-09-02T10:36:32.836Z,101340.53
2022-09-02T10:39:02.352Z,101349.41
2022-09-02T10:41:31.989Z,101329.94
2022-09-02T10:43:59.476Z,101339.41
2022-09-02T10:46:26.704Z,101329.22
2022-09-02T10:48:53.677Z,101322.50
2022-09-02T10:51:20.647Z,101322.69
2022-09-02T10:53:47.450Z,101320.63
2022-09-02T10:56:14.263Z,101324.47
2022-09-02T10:58:41.083Z,101332.50
2022-09-02T11:01:07.945Z,101308.81
2022-09-02T11:03:34.979Z,101321.94
2022-09-02T11:06:01.889Z,101325.72
2022-09-02T11:08:31.552Z,101321.72
2022-09-02T11:10:58.669Z,101317.06
2022-09-02T11:13:25.533Z,101328.50
2022-09-02T11:15:52.380Z,101313.66
2022-09-02T11:18:19.401Z,101311.34
2022-09-02T11:20:46.392Z,101314.94
2022-09-02T11:23:13.590Z,101315.13
2022-09-02T11:25:40.468Z,101307.94
2022-09-02T11:28:07.318Z,101304.31
2022-09-02T11:30:34.699Z,101304.94
2022-09-02T11:33:01.496Z,101304.53
2022-09-02T11:35:28.368Z,101293.44
2022-09-02T11:37:55.234Z,101291.88
2022-09-02T11:40:34.168Z,101292.72
2022-09-02T11:43:03.082Z,101291.03
2022-09-02T11:45:29.980Z,101289.34
2022-09-02T11:47:56.817Z,101287.19
2022-09-02T11:50:24.582Z,101288.72
2022-09-02T11:52:51.743Z,101286.53
2022-09-02T11:55:18.689Z,101279.44
2022-09-02T11:57:45.526Z,101276.16
2022-09-02T12:00:13.947Z,101281.34
2022-09-02T12:02:41.097Z,101277.94
2022-09-02T12:05:08.464Z,101270.72
2022-09-02T12:07:36.875Z,101273.25
2022-09-02T12:10:06.088Z,101271.53
2022-09-02T12:12:34.225Z,101272.00
2022-09-02T12:15:01.043Z,101275.78
2022-09-02T12:17:29.869Z,101264.34
2022-09-02T12:19:56.761Z,101262.59
2022-09-02T12:22:26.282Z,101265.06
2022-09-02T12:24:53.732Z,101266.94
2022-09-02T12:27:20.910Z,101265.88
2022-09-02T12:29:47.713Z,101263.31
2022-09-02T12:32:14.497Z,101263.09
2022-09-02T12:34:41.811Z,101255.06
2022-09-02T12:37:08.775Z,101246.84
2022-09-02T12:39:36.023Z,101243.13
2022-09-02T12:42:02.841Z,101247.28
2022-09-02T12:44:29.834Z,101247.50
2022-09-02T12:46:56.822Z,101236.94
2022-09-02T12:49:24.048Z,101246.41
2022-09-02T12:51:50.857Z,101243.63
2022-09-02T12:54:17.645Z,101237.69
2022-09-02T12:56:44.460Z,101239.41
2022-09-02T12:59:11.264Z,101231.28
2022-09-02T13:01:38.247Z,101221.97
2022-09-02T13:04:05.195Z,101224.09
2022-09-02T13:06:31.995Z,101228.88
2022-09-02T13:08:59.053Z,101218.34
2022-09-02T13:11:25.883Z,101220.22
2022-09-02T13:13:52.818Z,101218.25
2022-09-02T13:16:19.701Z,101213.59
2022-09-02T13:18:46.537Z,101213.16
2022-09-02T13:21:14.245Z,101213.78
2022-09-02T13:23:41.041Z,101214.44
2022-09-02T13:26:07.844Z,101202.28
2022-09-02T13:28:34.712Z,101210.28
2022-09-02T13:31:01.582Z,101205.66
2022-09-02T13:33:28.435Z,101200.78
2022-09-02T13:35:55.784Z,101201.38
2022-09-02T13:38:22.869Z,101197.94
2022-09-02T13:40:49.886Z,101201.94
2022-09-02T13:43:16.896Z,101194.22
2022-09-02T13:45:43.833Z,101188.63
2022-09-02T13:48:11.004Z,101187.88
2022-09-02T13:50:37.908Z,101199.28
2022-09-02T13:53:54.003Z,101196.81
2022-09-02T13:55:51.500Z,101191.66
2022-09-02T13:58:18.788Z,101201.81
2022-09-02T14:00:45.715Z,101195.84
2022-09-02T14:03:12.669Z,101195.81
2022-09-02T14:05:42.867Z,101191.25
2022-09-02T14:08:12.184Z,101185.56
2022-09-02T14:10:39.416Z,101188.69
2022-09-02T14:13:06.216Z,101187.88
2022-09-02T14:15:33.220Z,101179.47
2022-09-02T14:18:00.048Z,101182.41
2022-09-02T14:20:26.845Z,101182.38
2022-09-02T14:22:53.765Z,101178.50
2022-09-02T14:25:24.192Z,101182.28
2022-09-02T14:27:53.533Z,101169.22
2022-09-02T14:30:20.317Z,101162.81
2022-09-02T14:32:47.119Z,101170.84
2022-09-02T14:35:13.916Z,101167.31
2022-09-02T14:37:40.721Z,101167.16
2022-09-02T14:40:12.206Z,101167.59
2022-09-02T14:42:39.292Z,101172.00
2022-09-02T14:45:09.476Z,101162.88
2022-09-02T14:47:36.445Z,101160.91
2022-09-02T14:50:03.720Z,101155.19
2022-09-02T14:52:30.545Z,101158.31
2022-09-02T14:54:57.427Z,101155.78
2022-09-02T14:57:24.296Z,101161.81
2022-09-02T14:59:51.840Z,101158.53
2022-09-02T15:02:18.663Z,101161.47
2022-09-02T15:04:45.520Z,101159.53
2022-09-02T15:07:12.332Z,101172.59
2022-09-02T15:09:39.158Z,101164.53
2022-09-02T15:12:05.964Z,101168.91
2022-09-02T15:14:32.817Z,101171.34
2022-09-02T15:17:00.028Z,101163.84
2022-09-02T15:19:26.904Z,101160.72
2022-09-02T15:21:53.795Z,101157.47
2022-09-02T15:24:20.603Z,101154.09
2022-09-02T15:26:47.400Z,101155.13
2022-09-02T15:29:15.035Z,101160.34
2022-09-02T15:31:42.180Z,101157.72
2022-09-02T15:34:08.967Z,101156.44
2022-09-02T15:36:35.769Z,101146.47
2022-09-02T15:39:02.590Z,101142.44
2022-09-02T15:41:31.400Z,101140.56
2022-09-02T15:43:59.746Z,101135.50
2022-09-02T15:46:26.837Z,101135.50
2022-09-02T15:48:53.790Z,101138.44
2022-09-02T15:51:20.629Z,101138.59
2022-09-02T15:53:49.153Z,101150.38
2022-09-02T15:56:16.029Z,101153.28
2022-09-02T15:58:42.949Z,101150.66
2022-09-02T16:01:09.912Z,101143.34
2022-09-02T16:03:36.756Z,101147.09
2022-09-02T16:06:03.555Z,101140.31
2022-09-02T16:08:30.368Z,101136.75
2022-09-02T16:10:57.157Z,101131.44
2022-09-02T16:13:24.099Z,101137.13
2022-09-02T16:15:53.320Z,101135.75
2022-09-02T16:18:20.115Z,101133.19
2022-09-02T16:20:46.921Z,101131.91
2022-09-02T16:23:13.741Z,101125.44
2022-09-02T16:25:40.539Z,101124.41
2022-09-02T16:28:07.338Z,101127.38
2022-09-02T16:30:34.181Z,101117.75
2022-09-02T16:33:02.177Z,101113.75
2022-09-02T16:35:28.965Z,101124.25
2022-09-02T16:37:57.359Z,101119.78
2022-09-02T16:40:24.175Z,101113.38
2022-09-02T16:42:51.029Z,101115.00
2022-09-02T16:45:17.893Z,101119.44
2022-09-02T16:47:44.690Z,101107.28
2022-09-02T16:50:12.499Z,101111.03
2022-09-02T16:52:40.966Z,101107.88
2022-09-02T16:55:07.848Z,101107.63
2022-09-02T16:57:34.653Z,101113.09
2022-09-02T17:00:01.465Z,101109.66
2022-09-02T17:02:30.005Z,101110.44
2022-09-02T17:04:56.873Z,101109.97
2022-09-02T17:07:23.696Z,101106.53
2022-09-02T17:09:50.843Z,101114.75
2022-09-02T17:12:17.675Z,101098.47
2022-09-02T17:14:44.553Z,101106.94
2022-09-02T17:17:14.808Z,101106.47
2022-09-02T17:19:41.635Z,101097.69
2022-09-02T17:22:08.450Z,101107.16
2022-09-02T17:24:35.240Z,101102.03
2022-09-02T17:27:03.065Z,101108.91
2022-09-02T17:32:17.554Z,101108.22
2022-09-02T17:34:44.381Z,101101.47
2022-09-02T17:37:11.177Z,101094.19
2022-09-02T17:39:38.074Z,101087.41
2022-09-02T17:42:05.150Z,101093.47
2022-09-02T17:44:34.875Z,101099.56
2022-09-02T17:47:02.623Z,101098.25
2022-09-02T17:49:29.881Z,101095.06
2022-09-02T17:52:00.028Z,101100.28
2022-09-02T17:54:27.822Z,101092.00
2022-09-02T17:56:54.618Z,101103.16
2022-09-02T17:59:21.444Z,101100.69
2022-09-02T18:01:48.237Z,101099.97
2022-09-02T18:04:15.142Z,101092.47
2022-09-02T18:06:44.524Z,101099.09
2022-09-02T18:09:11.312Z,101104.22
2022-09-02T18:11:41.067Z,101095.72
2022-09-02T18:14:07.916Z,101102.47
2022-09-02T18:16:37.035Z,101105.78
2022-09-02T18:19:04.387Z,101113.38
2022-09-02T18:21:31.317Z,101118.16
2022-09-02T18:23:58.149Z,101115.00
2022-09-02T18:26:25.002Z,101115.22
2022-09-02T18:28:52.421Z,101109.41
2022-09-02T18:31:19.260Z,101118.06
2022-09-02T18:33:46.099Z,101116.91
2022-09-02T18:36:12.959Z,101121.13
2022-09-02T18:38:40.940Z,101124.03
2022-09-02T18:41:07.748Z,101131.63
2022-09-02T18:43:34.896Z,101132.84
2022-09-02T18:46:01.748Z,101131.94
2022-09-02T18:48:28.598Z,101134.47
2022-09-02T18:50:55.707Z,101130.22
2022-09-02T18:53:22.758Z,101131.00
2022-09-02T18:55:49.614Z,101130.38
2022-09-02T18:58:16.424Z,101133.38
2022-09-02T19:00:44.320Z,101129.56
2022-09-02T19:03:11.226Z,101141.41
2022-09-02T19:05:38.045Z,101143.25
2022-09-02T19:08:23.599Z,101143.66
2022-09-02T19:10:50.461Z,101142.13
2022-09-02T19:13:18.769Z,101147.16
2022-09-02T19:15:45.660Z,101139.97
2022-09-02T19:18:12.482Z,101135.91
2022-09-02T19:20:39.301Z,101143.41
2022-09-02T19:23:06.424Z,101141.94
2022-09-02T19:25:34.179Z,101139.91
2022-09-02T19:28:06.038Z,101140.78
2022-09-02T19:30:37.176Z,101150.44
2022-09-02T19:33:04.318Z,101149.75
2022-09-02T19:35:31.354Z,101144.66
2022-09-02T19:37:58.218Z,101147.16
2022-09-02T19:40:26.177Z,101153.09
2022-09-02T19:42:54.174Z,101147.38
2022-09-02T19:45:21.595Z,101142.13
2022-09-02T19:48:06.895Z,101147.38
2022-09-02T19:50:34.600Z,101149.00
2022-09-02T19:53:01.455Z,101160.22
2022-09-02T19:55:28.356Z,101154.03
2022-09-02T19:57:55.186Z,101148.53
2022-09-02T20:00:22.946Z,101169.00
2022-09-02T20:02:51.013Z,101161.78
2022-09-02T20:05:20.045Z,101167.03
2022-09-02T20:07:47.628Z,101165.75
2022-09-02T20:10:14.481Z,101167.88
2022-09-02T20:12:41.913Z,101163.44
2022-09-02T20:15:09.783Z,101166.09
2022-09-02T20:17:36.585Z,101163.38
2022-09-02T20:20:03.393Z,101167.19
2022-09-02T20:22:34.661Z,101170.13
2022-09-02T20:25:01.496Z,101167.16
2022-09-02T20:27:28.359Z,101172.19
2022-09-02T20:29:56.621Z,101176.97
2022-09-02T20:32:23.441Z,101183.53
2022-09-02T20:34:50.283Z,101184.56
2022-09-02T20:37:19.193Z,101177.91
2022-09-02T20:39:46.016Z,101170.06
2022-09-02T20:42:12.989Z,101175.78
2022-09-02T20:44:39.876Z,101178.34
2022-09-02T20:47:06.811Z,101182.84
2022-09-02T20:49:33.680Z,101181.34
2022-09-02T20:52:00.678Z,101177.72
2022-09-02T20:54:28.132Z,101177.25
2022-09-02T20:56:54.940Z,101179.75
2022-09-02T20:59:21.724Z,101181.84
2022-09-02T21:01:48.560Z,101179.75
2022-09-02T21:04:15.405Z,101171.59
2022-09-02T21:06:42.675Z,101170.00
2022-09-02T21:09:09.482Z,101175.94
2022-09-02T21:11:38.711Z,101179.00
2022-09-02T21:14:05.520Z,101180.72
2022-09-02T21:16:32.369Z,101177.34
2022-09-02T21:18:59.225Z,101173.06
2022-09-02T21:21:26.228Z,101174.25
2022-09-02T21:23:53.197Z,101173.84
2022-09-02T21:26:20.726Z,101172.31
2022-09-02T21:28:50.248Z,101182.81
2022-09-02T21:31:17.158Z,101173.59
2022-09-02T21:33:44.152Z,101168.69
2022-09-02T21:36:10.952Z,101167.53
2022-09-02T21:38:37.892Z,101179.88
2022-09-02T21:41:04.701Z,101178.19
2022-09-02T21:43:31.509Z,101181.75
2022-09-02T21:45:58.434Z,101179.81
2022-09-02T21:48:25.393Z,101178.06
2022-09-02T21:50:53.067Z,101182.31
2022-09-02T21:53:19.868Z,101188.19
2022-09-02T21:55:46.776Z,101179.63
2022-09-02T21:58:13.595Z,101175.16
2022-09-02T22:00:40.426Z,101178.75
2022-09-02T22:03:07.314Z,101178.97
2022-09-02T22:05:34.130Z,101172.66
2022-09-02T22:08:00.960Z,101178.38
2022-09-02T22:10:28.165Z,101176.91
2022-09-02T22:12:55.530Z,101182.78
2022-09-02T22:15:22.321Z,101173.00
2022-09-02T22:17:51.260Z,101169.81
2022-09-02T22:20:18.477Z,101180.13
2022-09-02T22:22:45.278Z,101171.81
2022-09-02T22:25:15.677Z,101174.00
2022-09-02T22:27:42.486Z,101177.00
2022-09-02T22:30:18.789Z,101174.69
2022-09-02T22:32:46.431Z,101176.06
2022-09-02T22:35:13.240Z,101165.50
2022-09-02T22:37:40.081Z,101167.38
2022-09-02T22:40:07.520Z,101160.78
2022-09-02T22:42:34.392Z,101165.84
2022-09-02T22:45:20.069Z,101172.78
2022-09-02T22:48:05.410Z,101178.25
2022-09-02T22:50:50.904Z,101171.53
2022-09-02T22:53:17.692Z,101164.75
2022-09-02T22:55:46.448Z,101162.56
2022-09-02T22:58:15.985Z,101166.50
2022-09-02T23:00:43.574Z,101168.44
2022-09-02T23:03:10.531Z,101160.44
2022-09-02T23:05:44.841Z,101165.91
2022-09-02T23:08:13.024Z,101168.00
2022-09-02T23:10:39.808Z,101166.25
2022-09-02T23:13:06.650Z,101156.50
2022-09-02T23:15:34.301Z,101153.50
2022-09-02T23:18:01.421Z,101159.31
2022-09-02T23:20:28.400Z,101154.22
2022-09-02T23:22:55.214Z,101148.94
2022-09-02T23:25:21.992Z,101148.59
2022-09-02T23:27:52.097Z,101152.81
2022-09-02T23:30:18.893Z,101145.63
2022-09-02T23:32:46.285Z,101153.88
2022-09-02T23:35:13.456Z,101153.41
2022-09-02T23:37:40.339Z,101159.50
2022-09-02T23:40:08.705Z,101156.09
2022-09-02T23:42:35.534Z,101156.47
2022-09-02T23:45:02.345Z,101149.47
2022-09-02T23:47:29.313Z,101143.94
2022-09-02T23:49:56.575Z,101137.34
2022-09-02T23:52:24.695Z,101134.84
2022-09-02T23:54:51.493Z,101134.88
2022-09-02T23:57:18.338Z,101138.47
2022-09-02T23:59:45.199Z,101133.41
